Time;durP1;ratioP1;P1;durP2;ratioP2;P2;SDS_P1;SDS_P2;PMS_P1;PMS_P2;Temp;Humidity;BMP_temperature;BMP_pressure;BME280_temperature;BME280_humidity;BME280_pressure;Samples;Min_cycle;Max_cycle;Signal;HPM_P1;HPM_P2
2021/11/02 00:02:25;;;;;;;48.05;27.23;;;;;;;;;;5094490;28;20086;-75
2021/11/02 00:04:51;;;;;;;35.30;23.75;;;;;;;;;;5094829;28;20024;-74
2021/11/02 00:07:17;;;;;;;33.72;22.60;;;;;;;;;;5094815;28;20099;-74
2021/11/02 00:09:45;;;;;;;35.83;21.50;;;;;;;;;;5094322;28;20099;-74
2021/11/02 00:12:12;;;;;;;34.03;22.15;;;;;;;;;;5094832;28;20024;-74
2021/11/02 00:14:38;;;;;;;33.83;19.58;;;;;;;;;;5094326;28;20027;-74
2021/11/02 00:17:11;;;;;;;28.85;17.23;;;;;;;;;;5094671;28;20031;-74
2021/11/02 00:19:40;;;;;;;29.05;17.70;;;;;;;;;;5094807;28;20103;-74
2021/11/02 00:22:17;;;;;;;31.25;19.85;;;;;;;;;;5092738;28;20514;-74
2021/11/02 00:25:04;;;;;;;26.50;17.38;;;;;;;;;;5094674;28;20024;-73
2021/11/02 00:27:31;;;;;;;29.75;17.92;;;;;;;;;;5093969;28;20068;-73
2021/11/02 00:29:57;;;;;;;27.45;17.63;;;;;;;;;;5094053;28;20020;-73
2021/11/02 00:32:24;;;;;;;27.20;16.98;;;;;;;;;;5094299;28;20070;-74
2021/11/02 00:34:50;;;;;;;26.95;15.95;;;;;;;;;;5094420;28;20031;-73
2021/11/02 00:37:16;;;;;;;25.27;16.83;;;;;;;;;;5094059;28;20100;-74
2021/11/02 00:39:43;;;;;;;26.50;15.88;;;;;;;;;;5092908;28;20444;-74
2021/11/02 00:42:09;;;;;;;29.42;17.35;;;;;;;;;;5094377;28;20044;-74
2021/11/02 00:44:37;;;;;;;29.10;17.95;;;;;;;;;;5092544;28;20379;-73
2021/11/02 00:47:05;;;;;;;31.55;19.20;;;;;;;;;;5094006;28;20034;-74
2021/11/02 00:49:32;;;;;;;34.70;21.05;;;;;;;;;;5094010;28;20024;-74
2021/11/02 00:51:58;;;;;;;31.77;19.92;;;;;;;;;;5093093;28;20476;-74
2021/11/02 00:54:24;;;;;;;31.85;18.27;;;;;;;;;;5094212;28;20023;-74
2021/11/02 00:56:51;;;;;;;33.58;20.30;;;;;;;;;;5092266;28;20392;-74
2021/11/02 00:59:17;;;;;;;32.92;20.17;;;;;;;;;;5093961;28;20031;-74
2021/11/02 01:01:43;;;;;;;29.80;18.27;;;;;;;;;;5093719;28;20472;-73
2021/11/02 01:04:09;;;;;;;35.33;17.67;;;;;;;;;;5093365;28;20027;-74
2021/11/02 01:06:37;;;;;;;29.55;17.50;;;;;;;;;;5093780;28;20096;-74
2021/11/02 01:09:04;;;;;;;26.70;15.48;;;;;;;;;;5093743;28;20032;-74
2021/11/02 01:11:30;;;;;;;24.23;15.88;;;;;;;;;;5093370;28;20076;-74
2021/11/02 01:13:56;;;;;;;29.90;18.17;;;;;;;;;;5093587;28;20056;-74
2021/11/02 01:16:25;;;;;;;33.88;21.20;;;;;;;;;;5092291;28;20028;-74
2021/11/02 01:18:54;;;;;;;32.00;21.30;;;;;;;;;;5093308;28;20016;-74
2021/11/02 01:21:21;;;;;;;35.00;21.80;;;;;;;;;;5093459;28;20024;-74
2021/11/02 01:23:47;;;;;;;33.47;19.75;;;;;;;;;;5093473;28;20484;-74
2021/11/02 01:26:14;;;;;;;30.55;16.98;;;;;;;;;;5093160;28;20384;-73
2021/11/02 01:28:40;;;;;;;30.63;17.67;;;;;;;;;;5093391;28;20019;-73
2021/11/02 01:31:06;;;;;;;30.17;17.77;;;;;;;;;;5093328;28;20020;-73
2021/11/02 01:33:33;;;;;;;23.30;15.05;;;;;;;;;;5093092;28;20032;-73
2021/11/02 01:35:59;;;;;;;30.55;19.02;;;;;;;;;;5092097;28;20543;-74
2021/11/02 01:38:25;;;;;;;30.17;19.17;;;;;;;;;;5093295;28;20090;-74
2021/11/02 01:40:54;;;;;;;33.08;20.40;;;;;;;;;;5092572;28;20048;-74
2021/11/02 01:43:20;;;;;;;31.15;18.77;;;;;;;;;;5093260;28;20038;-73
2021/11/02 01:45:46;;;;;;;31.83;18.45;;;;;;;;;;5093470;28;20039;-74
2021/11/02 01:48:23;;;;;;;24.50;14.80;;;;;;;;;;5092958;28;20488;-74
2021/11/02 01:50:50;;;;;;;22.45;12.55;;;;;;;;;;5093254;28;20476;-74
2021/11/02 01:53:16;;;;;;;21.77;13.43;;;;;;;;;;5092771;28;20024;-74
2021/11/02 01:55:43;;;;;;;19.30;11.07;;;;;;;;;;5093138;28;20032;-74
2021/11/02 01:58:11;;;;;;;29.92;16.63;;;;;;;;;;5093133;28;20383;-74
2021/11/02 02:00:37;;;;;;;31.85;20.50;;;;;;;;;;5091242;28;20024;-71
2021/11/02 02:03:25;;;;;;;25.63;15.82;;;;;;;;;;5094526;28;20099;-71
2021/11/02 02:05:58;;;;;;;23.25;13.25;;;;;;;;;;5097121;28;20470;-74
2021/11/02 02:08:32;;;;;;;22.77;13.07;;;;;;;;;;5095585;28;20533;-74
2021/11/02 02:11:20;;;;;;;20.50;12.38;;;;;;;;;;5097151;28;20020;-75
2021/11/02 02:13:52;;;;;;;17.17;11.40;;;;;;;;;;5097099;28;20376;-72
2021/11/02 02:16:22;;;;;;;16.92;10.80;;;;;;;;;;5096452;28;20068;-72
2021/11/02 02:19:01;;;;;;;20.35;11.80;;;;;;;;;;5096813;28;20103;-72
2021/11/02 02:21:47;;;;;;;19.77;12.70;;;;;;;;;;5096639;28;20173;-72
2021/11/02 02:24:28;;;;;;;17.80;11.48;;;;;;;;;;5096783;28;20057;-73
2021/11/02 02:27:04;;;;;;;19.98;12.55;;;;;;;;;;5096745;28;20024;-72
2021/11/02 02:29:32;;;;;;;28.85;16.65;;;;;;;;;;5096322;28;20028;-72
2021/11/02 02:32:00;;;;;;;23.73;13.73;;;;;;;;;;5096543;28;20028;-72
2021/11/02 02:34:26;;;;;;;26.33;14.95;;;;;;;;;;5096394;28;20024;-72
2021/11/02 02:36:54;;;;;;;23.10;16.25;;;;;;;;;;5095327;28;20365;-72
2021/11/02 02:39:20;;;;;;;22.77;13.57;;;;;;;;;;5096482;28;20469;-72
2021/11/02 02:41:47;;;;;;;21.08;12.77;;;;;;;;;;5096242;28;20432;-72
2021/11/02 02:44:14;;;;;;;28.77;17.23;;;;;;;;;;5096020;28;20422;-72
2021/11/02 02:46:41;;;;;;;24.00;14.98;;;;;;;;;;5096281;28;20412;-72
2021/11/02 02:49:09;;;;;;;25.45;16.45;;;;;;;;;;5096265;28;20541;-72
2021/11/02 02:51:35;;;;;;;29.38;17.17;;;;;;;;;;5095861;28;20357;-73
2021/11/02 02:54:02;;;;;;;26.55;17.23;;;;;;;;;;5096185;28;20048;-73
2021/11/02 02:56:29;;;;;;;23.55;15.07;;;;;;;;;;5095722;28;20494;-73
2021/11/02 02:58:58;;;;;;;26.52;15.30;;;;;;;;;;5096177;28;20027;-72
2021/11/02 03:01:25;;;;;;;27.20;14.35;;;;;;;;;;5096081;28;20030;-72
2021/11/02 03:04:02;;;;;;;20.13;12.90;;;;;;;;;;5095564;28;20077;-72
2021/11/02 03:06:31;;;;;;;24.08;14.40;;;;;;;;;;5096102;28;20016;-72
2021/11/02 03:08:59;;;;;;;27.45;16.85;;;;;;;;;;5095827;28;20028;-73
2021/11/02 03:11:25;;;;;;;30.65;17.00;;;;;;;;;;5095428;28;20016;-72
2021/11/02 03:13:54;;;;;;;31.20;16.90;;;;;;;;;;5093952;28;20081;-72
2021/11/02 03:16:28;;;;;;;21.70;14.52;;;;;;;;;;5095749;28;20027;-72
2021/11/02 03:44:06;;;;;;;22.33;14.20;;;;;;;;;;5095515;28;20122;-71
2021/11/02 03:49:36;;;;;;;19.90;13.00;;;;;;;;;;5095196;28;20134;-73
2021/11/02 03:54:50;;;;;;;20.27;13.35;;;;;;;;;;5095041;28;20058;-72
2021/11/02 04:27:59;;;;;;;20.05;13.35;;;;;;;;;;5072941;28;20063;-72
2021/11/02 05:11:47;;;;;;;22.00;14.60;;;;;;;;;;5093381;28;20016;-73
2021/11/02 05:46:53;;;;;;;24.60;15.75;;;;;;;;;;5093309;28;20047;-73
2021/11/02 06:00:02;;;;;;;25.15;16.27;;;;;;;;;;5092902;28;20024;-71
2021/11/02 06:02:52;;;;;;;24.00;15.48;;;;;;;;;;5093176;28;20032;-74
2021/11/02 06:08:02;;;;;;;27.83;16.73;;;;;;;;;;5092551;28;20105;-72
2021/11/02 06:29:54;;;;;;;27.08;18.30;;;;;;;;;;5091288;28;20030;-72
2021/11/02 06:32:33;;;;;;;26.98;17.15;;;;;;;;;;5090911;28;20027;-74
2021/11/02 06:37:51;;;;;;;26.63;17.50;;;;;;;;;;5089754;28;20028;-74
2021/11/02 07:16:12;;;;;;;71.07;37.15;;;;;;;;;;5094115;28;20101;-76
2021/11/02 07:18:38;;;;;;;30.23;20.50;;;;;;;;;;5094263;28;20031;-75
2021/11/02 07:26:28;;;;;;;29.65;18.77;;;;;;;;;;5093974;28;20073;-76
2021/11/02 08:47:19;;;;;;;35.20;22.63;;;;;;;;;;5072357;28;20498;-72
2021/11/02 08:49:48;;;;;;;23.52;15.88;;;;;;;;;;5070602;28;20681;-72
2021/11/02 08:52:15;;;;;;;34.00;19.98;;;;;;;;;;5072123;28;20469;-73
2021/11/02 08:54:42;;;;;;;23.38;15.65;;;;;;;;;;5071893;28;20024;-73
2021/11/02 08:57:09;;;;;;;25.17;17.70;;;;;;;;;;5068971;28;20027;-73
2021/11/02 08:59:36;;;;;;;20.60;14.80;;;;;;;;;;5072161;28;20104;-73
2021/11/02 09:02:06;;;;;;;29.00;18.77;;;;;;;;;;5071243;28;20067;-71
2021/11/02 09:04:33;;;;;;;27.90;19.63;;;;;;;;;;5089467;28;20516;-74
2021/11/02 09:07:04;;;;;;;32.67;20.05;;;;;;;;;;5090795;28;20039;-72
2021/11/02 09:09:37;;;;;;;25.35;16.58;;;;;;;;;;5092615;28;20066;-71
2021/11/02 09:12:04;;;;;;;28.23;20.10;;;;;;;;;;5091089;28;20496;-71
2021/11/02 09:14:36;;;;;;;24.58;15.35;;;;;;;;;;5088917;28;20049;-71
2021/11/02 09:17:03;;;;;;;23.25;17.23;;;;;;;;;;5091944;28;20480;-72
2021/11/02 09:19:30;;;;;;;28.85;20.13;;;;;;;;;;5090317;28;20120;-71
2021/11/02 09:21:56;;;;;;;32.58;21.83;;;;;;;;;;5089566;28;20028;-71
2021/11/02 09:24:23;;;;;;;22.33;15.30;;;;;;;;;;5089422;28;20378;-71
2021/11/02 09:26:50;;;;;;;20.42;14.85;;;;;;;;;;5089057;28;20103;-72
2021/11/02 09:29:17;;;;;;;22.25;14.60;;;;;;;;;;5086608;28;20031;-72
2021/11/02 09:31:43;;;;;;;21.17;15.52;;;;;;;;;;5087847;28;20035;-71
2021/11/02 09:34:09;;;;;;;19.38;14.35;;;;;;;;;;5089517;28;20356;-71
2021/11/02 09:36:42;;;;;;;24.65;17.13;;;;;;;;;;5090492;28;20022;-71
2021/11/02 09:39:09;;;;;;;;;;;;;;;;;;5090455;28;20035;-71
2021/11/02 09:41:50;;;;;;;25.67;16.15;;;;;;;;;;5084731;28;19950;-71
2021/11/02 09:44:34;;;;;;;23.08;16.33;;;;;;;;;;5085811;28;20028;-72
2021/11/02 09:47:01;;;;;;;23.88;14.70;;;;;;;;;;5087056;28;20035;-71
2021/11/02 09:49:42;;;;;;;22.27;15.32;;;;;;;;;;5090037;28;20536;-71
2021/11/02 09:52:18;;;;;;;25.75;15.43;;;;;;;;;;5088443;28;20028;-71
2021/11/02 09:55:03;;;;;;;24.65;15.88;;;;;;;;;;5090245;28;20115;-72
2021/11/02 09:57:48;;;;;;;21.75;13.73;;;;;;;;;;5090400;28;20031;-71
2021/11/02 10:00:15;;;;;;;23.65;14.23;;;;;;;;;;5080599;28;20029;-72
2021/11/02 10:02:46;;;;;;;22.25;15.05;;;;;;;;;;5070338;28;20111;-72
2021/11/02 10:05:32;;;;;;;19.25;13.55;;;;;;;;;;5072067;28;20027;-72
2021/11/02 10:08:04;;;;;;;17.27;11.07;;;;;;;;;;5070269;28;20036;-73
2021/11/02 10:10:38;;;;;;;19.45;12.98;;;;;;;;;;5072142;28;20130;-72
2021/11/02 10:13:04;;;;;;;16.77;11.73;;;;;;;;;;5071804;28;20386;-72
2021/11/02 10:17:36;;;;;;;20.38;14.88;;;;;;;;;;5069777;27;20400;-71
2021/11/02 10:20:44;;;;;;;19.25;12.50;;;;;;;;;;5069068;28;20423;-72
2021/11/02 10:23:21;;;;;;;18.30;11.80;;;;;;;;;;5067232;28;20139;-71
2021/11/02 10:26:06;;;;;;;20.70;12.10;;;;;;;;;;5066268;28;20044;-72
2021/11/02 10:28:50;;;;;;;18.73;12.32;;;;;;;;;;5065485;28;20448;-71
2021/11/02 10:31:36;;;;;;;16.88;10.88;;;;;;;;;;5064901;28;20029;-71
2021/11/02 10:35:47;;;;;;;17.83;10.82;;;;;;;;;;5125460;27;20483;-70
2021/11/02 10:38:26;;;;;;;18.77;10.93;;;;;;;;;;5105352;28;20432;-71
2021/11/02 10:40:58;;;;;;;19.92;13.02;;;;;;;;;;5106244;28;20366;-69
2021/11/02 10:43:39;;;;;;;15.33;9.90;;;;;;;;;;5094662;28;20016;-70
2021/11/02 10:46:08;;;;;;;16.45;9.43;;;;;;;;;;5098341;28;20032;-69
2021/11/02 10:48:40;;;;;;;15.55;9.10;;;;;;;;;;5097971;28;20020;-70
2021/11/02 10:53:38;;;;;;;12.18;7.47;;;;;;;;;;5108821;27;20424;-70
2021/11/02 10:56:07;;;;;;;11.63;6.68;;;;;;;;;;5105733;28;20503;-71
2021/11/02 11:00:27;;;;;;;16.25;9.98;;;;;;;;;;5107603;27;20392;-72
2021/11/02 11:03:10;;;;;;;14.65;8.57;;;;;;;;;;5068327;28;20465;-70
2021/11/02 11:05:36;;;;;;;16.10;8.77;;;;;;;;;;5068506;28;20059;-70
2021/11/02 11:08:03;;;;;;;9.00;4.82;;;;;;;;;;5068590;28;20033;-70
2021/11/02 11:10:31;;;;;;;13.32;7.10;;;;;;;;;;5068241;28;20485;-71
2021/11/02 11:13:01;;;;;;;18.05;10.57;;;;;;;;;;5069887;28;20377;-71
2021/11/02 11:16:16;;;;;;;14.07;7.97;;;;;;;;;;5069533;28;20415;-71
2021/11/02 11:21:27;;;;;;;12.00;6.65;;;;;;;;;;5067899;28;20399;-71
2021/11/02 11:23:59;;;;;;;13.98;7.80;;;;;;;;;;5067065;28;20090;-70
2021/11/02 11:26:26;;;;;;;14.38;9.98;;;;;;;;;;5068294;28;20036;-71
2021/11/02 11:29:49;;;;;;;26.05;16.55;;;;;;;;;;5109098;27;20392;-71
2021/11/02 11:32:17;;;;;;;60.83;36.35;;;;;;;;;;5109726;28;20418;-66
2021/11/02 11:38:11;;;;;;;25.67;14.15;;;;;;;;;;5069814;28;20399;-69
2021/11/02 11:40:39;;;;;;;22.63;12.75;;;;;;;;;;5070302;28;20476;-67
2021/11/02 11:43:53;;;;;;;20.40;11.82;;;;;;;;;;5110460;27;20450;-69
2021/11/02 11:46:19;;;;;;;44.95;20.02;;;;;;;;;;5110396;28;20048;-66
2021/11/02 11:51:23;;;;;;;38.88;19.40;;;;;;;;;;5110338;27;20809;-69
2021/11/02 11:53:56;;;;;;;35.10;20.15;;;;;;;;;;5090288;28;20051;-68
2021/11/02 11:57:29;;;;;;;23.02;12.75;;;;;;;;;;5070097;27;20522;-68
2021/11/02 11:59:59;;;;;;;29.83;17.08;;;;;;;;;;5069332;28;20092;-68
2021/11/02 12:03:45;;;;;;;22.05;13.50;;;;;;;;;;5110063;27;20393;-68
2021/11/02 12:06:18;;;;;;;13.25;8.23;;;;;;;;;;5104077;28;20452;-67
2021/11/02 12:09:04;;;;;;;17.70;6.25;;;;;;;;;;5106173;27;20458;-67
2021/11/02 12:11:32;;;;;;;7.75;5.00;;;;;;;;;;5108964;28;20024;-68
2021/11/02 12:15:46;;;;;;;11.52;7.28;;;;;;;;;;5110528;27;20446;-67
2021/11/02 12:18:16;;;;;;;15.02;9.02;;;;;;;;;;5103266;28;20028;-67
2021/11/02 12:20:42;;;;;;;26.38;16.55;;;;;;;;;;5109822;28;20027;-68
2021/11/02 12:25:55;;;;;;;14.05;8.10;;;;;;;;;;5088630;27;20725;-68
2021/11/02 12:28:29;;;;;;;13.85;7.18;;;;;;;;;;5085752;28;20077;-68
2021/11/02 12:31:02;;;;;;;19.55;11.77;;;;;;;;;;5077861;28;20036;-68
2021/11/02 12:33:29;;;;;;;9.30;5.43;;;;;;;;;;5076374;28;20027;-68
2021/11/02 12:35:57;;;;;;;9.82;6.78;;;;;;;;;;5090061;28;20074;-67
2021/11/02 12:38:53;;;;;;;11.02;6.18;;;;;;;;;;5110855;27;20439;-68
2021/11/02 12:41:21;;;;;;;7.75;4.35;;;;;;;;;;5110564;28;20024;-68
2021/11/02 12:44:20;;;;;;;8.75;5.32;;;;;;;;;;5110854;27;20115;-68
2021/11/02 12:48:19;;;;;;;13.75;6.85;;;;;;;;;;5130762;27;20473;-68
2021/11/02 12:50:50;;;;;;;10.32;6.07;;;;;;;;;;5110956;28;20063;-69
2021/11/02 12:54:22;;;;;;;14.75;8.25;;;;;;;;;;5090295;27;20398;-67
2021/11/02 12:56:53;;;;;;;27.67;14.93;;;;;;;;;;5090092;28;20181;-67
2021/11/02 13:01:42;;;;;;;11.45;5.85;;;;;;;;;;5067655;27;20741;-67
2021/11/02 13:04:11;;;;;;;13.02;6.38;;;;;;;;;;5059262;28;20079;-69
2021/11/02 13:06:39;;;;;;;16.23;8.45;;;;;;;;;;5050159;28;20470;-67
2021/11/02 13:10:04;;;;;;;34.65;23.98;;;;;;;;;;5110029;27;20397;-67
2021/11/02 13:14:49;;;;;;;721.28;636.33;;;;;;;;;;5110902;27;20389;-70
2021/11/02 13:18:38;;;;;;;492.33;445.60;;;;;;;;;;5110319;27;20389;-68
2021/11/02 13:21:06;;;;;;;759.03;629.03;;;;;;;;;;5110488;28;20099;-67
2021/11/02 13:24:55;;;;;;;799.47;611.33;;;;;;;;;;5110571;27;20415;-73
2021/11/02 13:29:26;;;;;;;801.67;615.08;;;;;;;;;;5109700;27;20397;-73
2021/11/02 13:31:53;;;;;;;15.82;8.80;;;;;;;;;;5110030;28;20487;-72
2021/11/02 13:34:33;;;;;;;10.40;5.50;;;;;;;;;;5107838;28;20027;-72
2021/11/02 13:37:25;;;;;;;562.42;499.42;;;;;;;;;;5110148;28;20099;-72
2021/11/02 13:39:58;;;;;;;765.58;606.72;;;;;;;;;;5106975;27;20059;-73
2021/11/02 13:42:43;;;;;;;869.80;599.95;;;;;;;;;;5110980;28;20383;-72
2021/11/02 13:47:59;;;;;;;882.70;589.33;;;;;;;;;;5110731;27;20392;-73
2021/11/02 13:51:23;;;;;;;702.58;631.00;;;;;;;;;;5107501;27;20436;-73
2021/11/02 13:53:50;;;;;;;722.85;647.15;;;;;;;;;;5109636;28;20023;-73
2021/11/02 13:56:18;;;;;;;751.53;628.38;;;;;;;;;;5110070;28;20028;-74
2021/11/02 14:00:49;;;;;;;721.13;653.95;;;;;;;;;;5109710;27;20397;-73
2021/11/02 14:04:26;;;;;;;474.13;433.05;;;;;;;;;;5172657;27;20110;-71
2021/11/02 14:06:54;;;;;;;687.80;612.80;;;;;;;;;;5151945;27;20019;-72
2021/11/02 14:11:21;;;;;;;788.58;582.83;;;;;;;;;;5110822;27;20393;-72
2021/11/02 14:13:48;;;;;;;834.65;587.50;;;;;;;;;;5107847;28;20031;-71
2021/11/02 14:19:00;;;;;;;858.17;564.15;;;;;;;;;;5110539;27;20478;-72
2021/11/02 14:23:41;;;;;;;844.75;580.97;;;;;;;;;;5110563;27;20446;-70
2021/11/02 14:26:29;;;;;;;879.85;574.67;;;;;;;;;;5090021;28;20028;-72
2021/11/02 14:29:00;;;;;;;866.00;579.33;;;;;;;;;;5090773;28;20107;-72
2021/11/02 14:32:50;;;;;;;878.42;587.47;;;;;;;;;;5110835;27;20937;-72
2021/11/02 14:37:52;;;;;;;42.05;22.02;;;;;;;;;;5111166;27;20674;-71
2021/11/02 14:42:54;;;;;;;48.20;26.98;;;;;;;;;;5111682;27;20396;-72
2021/11/02 14:45:41;;;;;;;42.08;23.50;;;;;;;;;;5048462;28;20035;-73
2021/11/02 14:48:22;;;;;;;35.55;20.60;;;;;;;;;;5106621;28;20035;-73
2021/11/02 14:50:50;;;;;;;441.17;407.25;;;;;;;;;;5110936;28;20476;-73
2021/11/02 14:53:17;;;;;;;589.45;529.80;;;;;;;;;;5110902;28;20020;-73
2021/11/02 14:56:34;;;;;;;34.15;18.70;;;;;;;;;;5110937;27;20607;-72
2021/11/02 15:01:44;;;;;;;753.97;592.88;;;;;;;;;;5110734;27;20389;-73
2021/11/02 15:04:20;;;;;;;801.42;580.38;;;;;;;;;;5048331;28;20026;-72
2021/11/02 15:06:48;;;;;;;934.75;559.10;;;;;;;;;;5102604;28;20089;-72
2021/11/02 15:12:47;;;;;;;29.10;16.90;;;;;;;;;;5110609;27;20384;-72
2021/11/02 15:15:13;;;;;;;212.13;196.38;;;;;;;;;;5109923;28;20031;-70
2021/11/02 15:17:40;;;;;;;43.28;21.42;;;;;;;;;;5110158;28;20081;-71
2021/11/02 15:20:06;;;;;;;36.92;17.35;;;;;;;;;;5110960;28;20027;-72
2021/11/02 15:24:06;;;;;;;558.45;476.40;;;;;;;;;;5110715;27;20385;-72
2021/11/02 15:26:41;;;;;;;851.58;572.60;;;;;;;;;;5109762;28;20035;-72
2021/11/02 15:29:09;;;;;;;932.45;555.13;;;;;;;;;;5110915;28;20028;-73
2021/11/02 15:31:35;;;;;;;938.90;557.45;;;;;;;;;;5111219;28;20055;-73
2021/11/02 15:37:26;;;;;;;972.33;557.50;;;;;;;;;;5110741;27;20401;-71
2021/11/02 15:42:22;;;;;;;33.35;17.95;;;;;;;;;;5111683;27;20458;-73
2021/11/02 15:44:50;;;;;;;725.05;649.15;;;;;;;;;;5110769;28;20095;-74
2021/11/02 15:48:16;;;;;;;44.58;27.33;;;;;;;;;;5111194;27;20730;-73
2021/11/02 15:50:44;;;;;;;703.72;598.83;;;;;;;;;;5111010;28;20048;-73
2021/11/02 15:53:11;;;;;;;888.08;576.08;;;;;;;;;;5109756;28;20022;-72
2021/11/02 15:57:14;;;;;;;918.80;568.65;;;;;;;;;;5110737;27;20512;-71
2021/11/02 15:59:40;;;;;;;934.00;577.55;;;;;;;;;;5111133;28;20476;-71
2021/11/02 16:02:07;;;;;;;909.83;562.15;;;;;;;;;;5110966;28;20101;-72
2021/11/02 16:06:57;;;;;;;927.53;559.67;;;;;;;;;;5111177;27;20962;-72
2021/11/02 16:11:24;;;;;;;768.80;535.50;;;;;;;;;;5110587;27;20462;-72
2021/11/02 16:13:50;;;;;;;900.83;559.60;;;;;;;;;;5110871;28;20064;-70
2021/11/02 16:18:04;;;;;;;918.92;554.88;;;;;;;;;;5111073;27;20458;-72
2021/11/02 16:22:15;;;;;;;936.42;562.50;;;;;;;;;;5111362;27;20454;-72
2021/11/02 16:24:42;;;;;;;977.15;560.58;;;;;;;;;;5111039;28;20024;-72
2021/11/02 16:29:54;;;;;;;986.90;550.58;;;;;;;;;;5111605;27;20473;-71
2021/11/02 16:32:28;;;;;;;997.58;541.30;;;;;;;;;;5110506;28;20024;-70
2021/11/02 16:34:55;;;;;;;1008.78;555.30;;;;;;;;;;5110796;28;20529;-71
2021/11/02 16:37:38;;;;;;;989.75;553.95;;;;;;;;;;5110904;28;20030;-71
2021/11/02 16:40:18;;;;;;;993.00;545.45;;;;;;;;;;5110645;28;20434;-71
2021/11/02 16:42:57;;;;;;;1001.13;544.40;;;;;;;;;;5111470;27;20461;-72
2021/11/02 16:47:06;;;;;;;999.50;535.53;;;;;;;;;;5110588;27;20888;-71
2021/11/02 16:49:33;;;;;;;1023.08;549.03;;;;;;;;;;5110931;28;20537;-71
2021/11/02 16:52:01;;;;;;;1002.55;532.47;;;;;;;;;;5111268;28;20445;-71
2021/11/02 16:54:29;;;;;;;983.30;537.53;;;;;;;;;;5110560;28;20028;-71
2021/11/02 16:58:21;;;;;;;1027.45;548.42;;;;;;;;;;5111424;27;20396;-72
2021/11/02 17:00:48;;;;;;;999.00;533.63;;;;;;;;;;5110698;28;20040;-72
2021/11/02 17:03:19;;;;;;;1007.13;538.95;;;;;;;;;;5111290;28;20016;-72
2021/11/02 17:09:06;;;;;;;1023.75;546.58;;;;;;;;;;5111015;27;20462;-73
2021/11/02 17:11:41;;;;;;;1019.45;536.05;;;;;;;;;;5111559;28;20052;-72
2021/11/02 17:14:40;;;;;;;1013.30;528.83;;;;;;;;;;5131704;27;20313;-72
2021/11/02 17:17:06;;;;;;;1017.72;533.55;;;;;;;;;;5110968;28;20098;-72
2021/11/02 17:21:06;;;;;;;985.95;515.35;;;;;;;;;;5111852;27;20458;-72
2021/11/02 17:24:30;;;;;;;663.92;564.60;;;;;;;;;;5111702;27;20792;-71
2021/11/02 17:26:56;;;;;;;49.58;24.70;;;;;;;;;;5111410;28;20466;-71
2021/11/02 17:30:17;;;;;;;333.55;305.95;;;;;;;;;;5110666;27;20127;-70
2021/11/02 17:32:44;;;;;;;746.80;605.20;;;;;;;;;;5091001;28;20039;-71
2021/11/02 17:35:10;;;;;;;54.05;31.92;;;;;;;;;;5090585;28;20027;-70
2021/11/02 17:37:37;;;;;;;41.85;24.23;;;;;;;;;;5090293;28;20056;-72
2021/11/02 17:40:03;;;;;;;39.65;21.88;;;;;;;;;;5090479;28;20499;-71
2021/11/02 17:42:29;;;;;;;44.63;26.88;;;;;;;;;;5090719;28;20062;-72
2021/11/02 17:44:56;;;;;;;43.95;27.15;;;;;;;;;;5090199;28;20020;-72
2021/11/02 17:47:22;;;;;;;692.15;616.63;;;;;;;;;;5090408;28;20029;-73
2021/11/02 17:49:50;;;;;;;807.15;569.20;;;;;;;;;;5089915;28;20031;-73
2021/11/02 17:52:16;;;;;;;827.47;579.63;;;;;;;;;;5090313;28;20045;-72
2021/11/02 17:54:42;;;;;;;840.75;577.35;;;;;;;;;;5090245;28;20027;-72
2021/11/02 17:57:09;;;;;;;861.58;572.38;;;;;;;;;;5089733;28;20038;-72
2021/11/02 17:59:38;;;;;;;858.70;554.63;;;;;;;;;;5090125;28;20448;-72
2021/11/02 18:02:05;;;;;;;882.85;574.50;;;;;;;;;;5089180;28;20035;-73
2021/11/02 18:05:00;;;;;;;942.72;568.22;;;;;;;;;;5110770;27;20400;-72
2021/11/02 18:07:27;;;;;;;944.00;572.65;;;;;;;;;;5111256;28;20096;-72
2021/11/02 18:09:54;;;;;;;959.40;568.17;;;;;;;;;;5110867;28;20020;-71
2021/11/02 18:14:42;;;;;;;971.15;556.42;;;;;;;;;;5112018;27;20404;-72
2021/11/02 18:17:09;;;;;;;1017.00;546.88;;;;;;;;;;5111028;28;20376;-72
2021/11/02 18:19:36;;;;;;;965.60;533.28;;;;;;;;;;5110692;28;20024;-72
2021/11/02 18:22:02;;;;;;;978.20;543.90;;;;;;;;;;5111230;28;20434;-72
2021/11/02 18:24:33;;;;;;;997.20;549.20;;;;;;;;;;5109592;28;20036;-72
2021/11/02 18:27:00;;;;;;;988.78;554.33;;;;;;;;;;5110663;28;20027;-72
2021/11/02 18:29:26;;;;;;;986.15;546.00;;;;;;;;;;5110852;28;20488;-72
2021/11/02 18:31:53;;;;;;;964.95;537.95;;;;;;;;;;5110505;28;20047;-71
2021/11/02 18:34:19;;;;;;;962.72;525.83;;;;;;;;;;5110776;28;20039;-71
2021/11/02 18:36:50;;;;;;;942.80;521.50;;;;;;;;;;5110690;28;20430;-71
2021/11/02 18:39:18;;;;;;;983.72;523.38;;;;;;;;;;5110261;28;20028;-71
2021/11/02 18:41:44;;;;;;;983.05;548.70;;;;;;;;;;5110605;28;20024;-71
2021/11/02 18:44:11;;;;;;;978.45;532.25;;;;;;;;;;5110484;28;20032;-71
2021/11/02 18:46:37;;;;;;;1001.72;527.40;;;;;;;;;;5108709;28;20028;-71
2021/11/02 18:49:03;;;;;;;976.17;516.33;;;;;;;;;;5109014;28;20024;-71
2021/11/02 18:51:29;;;;;;;819.20;570.60;;;;;;;;;;5110443;28;20103;-71
2021/11/02 18:53:55;;;;;;;831.72;597.10;;;;;;;;;;5110071;28;20036;-72
2021/11/02 18:56:22;;;;;;;915.33;550.75;;;;;;;;;;5108902;28;20376;-71
2021/11/02 18:58:48;;;;;;;926.47;541.72;;;;;;;;;;5110446;28;20027;-71
2021/11/02 19:01:16;;;;;;;925.78;542.63;;;;;;;;;;5110127;28;20032;-71
2021/11/02 19:03:42;;;;;;;979.97;525.22;;;;;;;;;;5110461;28;20360;-71
2021/11/02 19:06:08;;;;;;;967.80;509.70;;;;;;;;;;5108842;28;20028;-72
2021/11/02 19:08:35;;;;;;;962.38;502.88;;;;;;;;;;5109807;28;20027;-71
2021/11/02 19:11:02;;;;;;;960.53;530.67;;;;;;;;;;5110128;28;20023;-72
2021/11/02 19:13:28;;;;;;;946.33;510.70;;;;;;;;;;5109849;28;20055;-72
2021/11/02 19:15:56;;;;;;;994.83;546.00;;;;;;;;;;5109666;28;20464;-71
2021/11/02 19:18:22;;;;;;;992.03;542.78;;;;;;;;;;5110005;28;20024;-72
2021/11/02 19:20:49;;;;;;;974.08;525.97;;;;;;;;;;5110204;28;20024;-71
2021/11/02 19:23:15;;;;;;;978.33;540.45;;;;;;;;;;5109541;28;20047;-71
2021/11/02 19:25:41;;;;;;;975.00;523.35;;;;;;;;;;5098121;28;20020;-71
2021/11/02 19:28:08;;;;;;;969.42;524.55;;;;;;;;;;5095966;28;20032;-71
2021/11/02 19:30:35;;;;;;;975.33;524.83;;;;;;;;;;5096191;28;20024;-71
2021/11/02 19:33:02;;;;;;;969.25;535.33;;;;;;;;;;5096100;28;20032;-71
2021/11/02 19:35:28;;;;;;;932.10;512.97;;;;;;;;;;5094382;28;20487;-71
2021/11/02 19:37:54;;;;;;;927.88;539.20;;;;;;;;;;5096138;28;20023;-71
2021/11/02 19:40:56;;;;;;;976.72;496.95;;;;;;;;;;5111469;27;20407;-72
2021/11/02 19:43:22;;;;;;;946.05;487.90;;;;;;;;;;5110846;28;20128;-72
2021/11/02 19:45:52;;;;;;;965.92;485.27;;;;;;;;;;5111130;28;20020;-72
2021/11/02 19:48:18;;;;;;;943.65;497.67;;;;;;;;;;5111149;28;20433;-72
2021/11/02 19:50:44;;;;;;;976.15;479.85;;;;;;;;;;5110708;28;20058;-72
2021/11/02 19:53:11;;;;;;;986.85;493.95;;;;;;;;;;5110969;28;20032;-71
2021/11/02 19:55:38;;;;;;;988.45;491.45;;;;;;;;;;5110872;28;20047;-72
2021/11/02 20:00:24;;;;;;;964.28;498.13;;;;;;;;;;5131693;27;20108;-72
2021/11/02 20:02:51;;;;;;;955.45;501.50;;;;;;;;;;5111495;28;20032;-72
2021/11/02 20:07:25;;;;;;;977.42;497.55;;;;;;;;;;5111641;27;20436;-73
2021/11/02 20:09:54;;;;;;;946.95;511.55;;;;;;;;;;5109957;28;20479;-73
2021/11/02 20:12:25;;;;;;;941.60;508.92;;;;;;;;;;5110764;28;20084;-73
2021/11/02 20:14:52;;;;;;;928.15;491.58;;;;;;;;;;5111300;28;20024;-72
2021/11/02 20:17:18;;;;;;;949.22;499.25;;;;;;;;;;5110556;28;20041;-72
2021/11/02 20:19:45;;;;;;;992.90;499.13;;;;;;;;;;5109710;28;20111;-72
2021/11/02 20:22:12;;;;;;;1011.53;515.63;;;;;;;;;;5111158;28;20049;-72
2021/11/02 20:24:40;;;;;;;1001.28;509.65;;;;;;;;;;5109192;28;20247;-72
2021/11/02 20:27:07;;;;;;;996.28;537.42;;;;;;;;;;5110885;28;20080;-73
2021/11/02 20:29:33;;;;;;;1020.85;530.85;;;;;;;;;;5110831;28;20023;-72
2021/11/02 20:32:00;;;;;;;991.78;496.27;;;;;;;;;;5110424;28;20027;-72
2021/11/02 20:34:26;;;;;;;985.38;488.77;;;;;;;;;;5110944;28;20384;-73
2021/11/02 20:37:02;;;;;;;977.75;493.20;;;;;;;;;;5110631;28;20024;-72
2021/11/02 20:39:29;;;;;;;959.50;485.50;;;;;;;;;;5110664;28;20096;-72
2021/11/02 20:41:58;;;;;;;940.45;474.55;;;;;;;;;;5110932;28;20042;-71
2021/11/02 20:44:28;;;;;;;940.10;498.52;;;;;;;;;;5110606;28;20425;-71
2021/11/02 20:46:56;;;;;;;942.97;503.33;;;;;;;;;;5108648;28;20035;-71
2021/11/02 20:49:25;;;;;;;935.13;503.95;;;;;;;;;;5110742;28;20028;-70
2021/11/02 20:51:52;;;;;;;924.92;497.50;;;;;;;;;;5110434;28;20020;-71
2021/11/02 20:54:20;;;;;;;918.00;484.17;;;;;;;;;;5110028;28;20027;-71
2021/11/02 20:56:46;;;;;;;904.78;479.25;;;;;;;;;;5110203;28;20028;-71
2021/11/02 20:59:13;;;;;;;916.42;488.95;;;;;;;;;;5110320;28;20028;-71